createdAt,value
2023-04-26T00:00:40.645Z,5.97
2023-04-26T00:02:41.002Z,5.90
2023-04-26T00:04:41.485Z,5.86
2023-04-26T00:06:41.831Z,5.84
2023-04-26T00:08:42.163Z,5.86
2023-04-26T00:10:42.516Z,5.82
2023-04-26T00:12:42.830Z,5.82
2023-04-26T00:14:43.242Z,5.69
2023-04-26T00:16:43.588Z,5.66
2023-04-26T00:18:43.965Z,5.73
2023-04-26T00:20:44.297Z,5.72
2023-04-26T00:22:44.642Z,5.72
2023-04-26T00:24:44.934Z,5.73
2023-04-26T00:26:45.228Z,5.71
2023-04-26T00:28:45.589Z,5.75
2023-04-26T00:30:46.008Z,5.91
2023-04-26T00:32:46.323Z,5.89
2023-04-26T00:34:46.590Z,5.91
2023-04-26T00:36:46.878Z,5.97
2023-04-26T00:38:47.199Z,5.99
2023-04-26T00:40:47.528Z,5.94
2023-04-26T00:42:47.810Z,6.01
2023-04-26T00:44:48.161Z,5.98
2023-04-26T00:46:48.479Z,5.93
2023-04-26T00:48:48.814Z,5.79
2023-04-26T00:50:49.194Z,5.76
2023-04-26T00:52:49.495Z,5.75
2023-04-26T00:54:49.822Z,5.72
2023-04-26T00:56:50.133Z,5.71
2023-04-26T00:58:50.549Z,5.71
2023-04-26T01:00:51.034Z,5.68
2023-04-26T01:02:51.644Z,5.57
2023-04-26T01:04:52.072Z,5.48
2023-04-26T01:06:52.492Z,5.59
2023-04-26T01:08:53.218Z,5.61
2023-04-26T01:10:53.680Z,5.56
2023-04-26T01:12:58.862Z,5.44
2023-04-26T01:14:59.216Z,5.38
2023-04-26T01:16:59.572Z,5.38
2023-04-26T01:18:59.861Z,5.25
2023-04-26T01:21:02.778Z,5.17
2023-04-26T01:23:03.718Z,5.02
2023-04-26T01:25:04.024Z,4.94
2023-04-26T01:27:04.397Z,4.78
2023-04-26T01:29:04.672Z,4.68
2023-04-26T01:31:05.089Z,4.62
2023-04-26T01:33:05.438Z,4.53
2023-04-26T01:35:05.788Z,4.45
2023-04-26T01:37:06.166Z,4.34
2023-04-26T01:39:06.468Z,4.26
2023-04-26T01:41:06.842Z,4.31
2023-04-26T01:43:07.125Z,4.28
2023-04-26T01:45:07.488Z,4.32
2023-04-26T01:47:07.780Z,4.32
2023-04-26T01:49:08.095Z,4.32
2023-04-26T01:51:08.365Z,4.24
2023-04-26T01:53:08.701Z,4.19
2023-04-26T01:55:09.060Z,4.16
2023-04-26T01:57:09.369Z,4.13
2023-04-26T01:59:09.684Z,4.08
2023-04-26T02:01:10.066Z,4.05
2023-04-26T02:03:10.437Z,3.99
2023-04-26T02:05:11.020Z,3.96
2023-04-26T02:07:11.452Z,3.84
2023-04-26T02:09:11.806Z,3.81
2023-04-26T02:11:12.084Z,3.83
2023-04-26T02:13:12.509Z,3.78
2023-04-26T02:15:12.833Z,3.80
2023-04-26T02:17:13.090Z,3.74
2023-04-26T02:19:13.490Z,3.66
2023-04-26T02:21:13.812Z,3.66
2023-04-26T02:23:14.159Z,3.55
2023-04-26T02:25:19.301Z,3.47
2023-04-26T02:27:19.621Z,3.44
2023-04-26T02:29:26.618Z,3.41
2023-04-26T02:31:25.336Z,3.40
2023-04-26T02:33:25.601Z,3.41
2023-04-26T02:35:25.920Z,3.31
2023-04-26T02:37:26.356Z,3.23
2023-04-26T02:39:26.618Z,3.28
2023-04-26T02:41:26.920Z,3.22
2023-04-26T02:43:27.206Z,3.14
2023-04-26T02:45:27.611Z,3.05
2023-04-26T02:47:27.923Z,3.07
2023-04-26T02:49:28.200Z,3.01
2023-04-26T02:51:28.563Z,2.92
2023-04-26T02:53:28.877Z,2.95
2023-04-26T02:55:29.184Z,2.89
2023-04-26T02:57:29.502Z,2.85
2023-04-26T02:59:29.823Z,2.77
2023-04-26T03:01:30.326Z,2.69
2023-04-26T03:03:30.894Z,2.67
2023-04-26T03:05:31.422Z,2.64
2023-04-26T03:07:31.739Z,2.57
2023-04-26T03:09:32.146Z,2.51
2023-04-26T03:11:32.452Z,2.57
2023-04-26T03:13:32.762Z,2.61
2023-04-26T03:15:33.083Z,2.64
2023-04-26T03:17:33.470Z,2.65
2023-04-26T03:19:33.716Z,2.72
2023-04-26T03:21:34.172Z,2.67
2023-04-26T03:23:34.507Z,2.54
2023-04-26T03:25:34.801Z,2.57
2023-04-26T03:27:35.069Z,2.53
2023-04-26T03:29:35.472Z,2.50
2023-04-26T03:31:35.866Z,2.42
2023-04-26T03:33:36.138Z,2.31
2023-04-26T03:35:36.508Z,2.31
2023-04-26T03:37:36.774Z,2.31
2023-04-26T03:39:37.058Z,2.31
2023-04-26T03:41:37.459Z,2.29
2023-04-26T03:43:37.724Z,2.32
2023-04-26T03:45:38.084Z,2.29
2023-04-26T03:47:38.414Z,2.18
2023-04-26T03:49:38.762Z,2.10
2023-04-26T03:51:39.062Z,2.08
2023-04-26T03:53:39.428Z,2.11
2023-04-26T03:55:39.716Z,2.13
2023-04-26T03:57:40.056Z,2.08
2023-04-26T03:59:40.332Z,2.10
2023-04-26T04:01:40.684Z,2.13
2023-04-26T04:03:41.689Z,2.13
2023-04-26T04:05:42.349Z,2.18
2023-04-26T04:07:42.694Z,2.28
2023-04-26T04:09:43.033Z,2.20
2023-04-26T04:11:43.457Z,2.15
2023-04-26T04:13:44.464Z,2.11
2023-04-26T04:15:44.814Z,2.13
2023-04-26T04:17:45.121Z,2.13
2023-04-26T04:19:45.419Z,2.10
2023-04-26T04:21:45.706Z,2.06
2023-04-26T04:23:46.060Z,2.07
2023-04-26T04:25:46.306Z,2.07
2023-04-26T04:27:46.664Z,2.07
2023-04-26T04:29:46.933Z,2.11
2023-04-26T04:31:47.259Z,2.14
2023-04-26T04:33:47.588Z,2.10
2023-04-26T04:35:47.898Z,2.11
2023-04-26T04:37:48.158Z,2.10
2023-04-26T04:39:53.379Z,2.11
2023-04-26T04:41:53.614Z,2.17
2023-04-26T04:43:53.996Z,2.18
2023-04-26T04:45:54.286Z,2.28
2023-04-26T04:47:54.657Z,2.33
2023-04-26T04:49:54.965Z,2.31
2023-04-26T04:51:55.280Z,2.29
2023-04-26T04:53:55.573Z,2.31
2023-04-26T04:55:55.873Z,2.28
2023-04-26T04:57:56.214Z,2.28
2023-04-26T04:59:56.546Z,2.29
2023-04-26T05:01:56.898Z,2.33
2023-04-26T05:03:57.842Z,2.33
2023-04-26T05:05:58.486Z,2.35
2023-04-26T05:07:58.858Z,2.38
2023-04-26T05:09:59.117Z,2.44
2023-04-26T05:11:59.416Z,2.49
2023-04-26T05:13:59.771Z,2.65
2023-04-26T05:16:00.203Z,2.67
2023-04-26T05:18:00.556Z,2.77
2023-04-26T05:20:00.885Z,2.80
2023-04-26T05:22:01.184Z,2.80
2023-04-26T05:24:01.463Z,2.85
2023-04-26T05:26:01.785Z,2.87
2023-04-26T05:28:02.169Z,2.93
2023-04-26T05:30:02.416Z,3.01
2023-04-26T05:32:02.879Z,3.01
2023-04-26T05:34:03.213Z,3.13
2023-04-26T05:36:03.473Z,3.21
2023-04-26T05:38:03.826Z,3.21
2023-04-26T05:40:04.262Z,3.31
2023-04-26T05:42:04.831Z,3.34
2023-04-26T05:44:05.201Z,3.34
2023-04-26T05:46:05.537Z,3.47
2023-04-26T05:48:05.866Z,3.53
2023-04-26T05:50:06.213Z,3.56
2023-04-26T05:52:06.535Z,3.66
2023-04-26T05:54:06.879Z,3.73
2023-04-26T05:56:07.129Z,3.83
2023-04-26T05:58:07.494Z,3.88
2023-04-26T06:00:07.751Z,3.94
2023-04-26T06:02:08.096Z,3.96
2023-04-26T06:04:08.996Z,4.05
2023-04-26T06:06:09.677Z,4.14
2023-04-26T06:08:09.934Z,4.24
2023-04-26T06:10:10.251Z,4.32
2023-04-26T06:12:10.579Z,4.41
2023-04-26T06:14:23.062Z,4.50
2023-04-26T06:16:16.221Z,4.56
2023-04-26T06:18:17.116Z,4.63
2023-04-26T06:20:17.464Z,4.70
2023-04-26T06:22:17.748Z,4.80
2023-04-26T06:24:18.039Z,4.92
2023-04-26T06:26:18.374Z,5.00
2023-04-26T06:28:18.706Z,5.04
2023-04-26T06:30:19.012Z,5.14
2023-04-26T06:32:19.346Z,5.23
2023-04-26T06:34:19.607Z,5.28
2023-04-26T06:36:19.967Z,5.39
2023-04-26T06:38:20.403Z,5.50
2023-04-26T06:40:20.684Z,5.61
2023-04-26T06:42:20.957Z,5.73
2023-04-26T06:44:21.276Z,5.97
2023-04-26T06:46:21.665Z,6.01
2023-04-26T06:48:21.956Z,6.09
2023-04-26T06:50:27.270Z,6.14
2023-04-26T06:52:27.891Z,6.17
2023-04-26T06:54:28.340Z,6.24
2023-04-26T06:56:28.600Z,6.33
2023-04-26T06:58:28.956Z,6.41
2023-04-26T07:00:29.231Z,6.51
2023-04-26T07:02:29.778Z,6.57
2023-04-26T07:04:30.375Z,6.62
2023-04-26T07:06:30.781Z,6.62
2023-04-26T07:08:31.090Z,6.64
2023-04-26T07:10:31.465Z,6.75
2023-04-26T07:12:31.760Z,6.82
2023-04-26T07:14:32.058Z,6.87
2023-04-26T07:16:32.447Z,6.96
2023-04-26T07:18:32.810Z,7.05
2023-04-26T07:20:33.070Z,7.14
2023-04-26T07:22:33.522Z,7.21
2023-04-26T07:24:33.787Z,7.32
2023-04-26T07:26:34.138Z,7.35
2023-04-26T07:28:34.462Z,7.42
2023-04-26T07:30:34.761Z,7.56
2023-04-26T07:32:35.269Z,7.77
2023-04-26T07:34:35.572Z,7.80
2023-04-26T07:36:35.907Z,7.90
2023-04-26T07:38:36.303Z,8.01
2023-04-26T07:40:36.569Z,8.06
2023-04-26T07:42:36.870Z,8.13
2023-04-26T07:44:37.149Z,8.24
2023-04-26T07:46:37.425Z,8.31
2023-04-26T07:48:37.736Z,8.33
2023-04-26T07:50:38.093Z,8.41
2023-04-26T07:52:38.507Z,8.45
2023-04-26T07:54:39.069Z,8.63
2023-04-26T07:56:39.380Z,8.78
2023-04-26T07:58:39.711Z,8.87
2023-04-26T08:00:40.003Z,8.92
2023-04-26T08:02:45.231Z,8.99
2023-04-26T08:04:46.061Z,9.04
2023-04-26T08:06:46.453Z,9.10
2023-04-26T08:08:46.731Z,9.14
2023-04-26T08:10:47.086Z,9.22
2023-04-26T08:12:47.332Z,9.25
2023-04-26T08:14:47.647Z,9.40
2023-04-26T08:16:47.957Z,9.50
2023-04-26T08:18:48.263Z,9.48
2023-04-26T08:20:48.548Z,9.59
2023-04-26T08:22:48.853Z,9.69
2023-04-26T08:24:49.162Z,9.79
2023-04-26T08:26:49.429Z,9.82
2023-04-26T08:28:49.764Z,9.87
2023-04-26T08:30:50.153Z,9.97
2023-04-26T08:32:50.570Z,10.01
2023-04-26T08:34:50.998Z,9.98
2023-04-26T08:36:51.274Z,9.91
2023-04-26T08:38:51.601Z,9.87
2023-04-26T08:40:51.913Z,9.92
2023-04-26T08:42:52.241Z,10.05
2023-04-26T08:44:52.505Z,10.19
2023-04-26T08:46:52.936Z,10.34
2023-04-26T08:48:53.211Z,10.51
2023-04-26T08:50:53.560Z,10.64
2023-04-26T08:52:53.837Z,10.69
2023-04-26T08:54:54.184Z,10.67
2023-04-26T08:56:54.485Z,10.84
2023-04-26T08:58:54.771Z,10.99
2023-04-26T09:00:55.075Z,11.23
2023-04-26T09:02:55.661Z,11.25
2023-04-26T09:04:56.220Z,11.40
2023-04-26T09:06:56.499Z,11.52
2023-04-26T09:08:56.820Z,11.66
2023-04-26T09:10:57.138Z,11.70
2023-04-26T09:12:57.464Z,11.63
2023-04-26T09:14:57.760Z,11.88
2023-04-26T09:16:58.023Z,12.06
2023-04-26T09:18:58.357Z,12.21
2023-04-26T09:20:58.659Z,12.45
2023-04-26T09:22:58.946Z,12.46
2023-04-26T09:24:59.282Z,12.45
2023-04-26T09:26:59.587Z,12.40
2023-04-26T09:28:59.903Z,12.42
2023-04-26T09:31:00.236Z,12.58
2023-04-26T09:33:00.544Z,12.60
2023-04-26T09:35:01.110Z,12.67
2023-04-26T09:37:01.332Z,12.50
2023-04-26T09:39:01.663Z,12.37
2023-04-26T09:41:01.974Z,12.40
2023-04-26T09:43:02.252Z,12.37
2023-04-26T09:45:02.566Z,12.57
2023-04-26T09:47:02.978Z,12.72
2023-04-26T09:49:03.325Z,12.93
2023-04-26T09:51:03.750Z,13.15
2023-04-26T09:53:04.012Z,13.56
2023-04-26T09:55:04.658Z,13.39
2023-04-26T09:57:04.921Z,13.44
2023-04-26T09:59:05.213Z,13.57
2023-04-26T10:01:05.666Z,13.30
2023-04-26T10:03:06.031Z,13.12
2023-04-26T10:05:06.435Z,13.05
2023-04-26T10:07:06.827Z,13.15
2023-04-26T10:09:11.925Z,13.15
2023-04-26T10:11:12.212Z,13.38
2023-04-26T10:13:12.520Z,13.56
2023-04-26T10:15:12.809Z,13.72
2023-04-26T10:17:13.114Z,13.79
2023-04-26T10:19:13.442Z,13.81
2023-04-26T10:21:13.727Z,13.90
2023-04-26T10:23:15.470Z,13.78
2023-04-26T10:25:17.361Z,13.79
2023-04-26T10:27:17.710Z,13.62
2023-04-26T10:29:18.010Z,13.96
2023-04-26T10:31:18.388Z,14.41
2023-04-26T10:33:18.732Z,14.60
2023-04-26T10:35:19.057Z,14.43
2023-04-26T10:37:19.355Z,14.60
2023-04-26T10:39:19.667Z,14.70
2023-04-26T10:41:19.995Z,14.85
2023-04-26T10:43:20.261Z,14.81
2023-04-26T10:45:20.562Z,14.81
2023-04-26T10:47:20.882Z,14.69
2023-04-26T10:49:21.186Z,14.47
2023-04-26T10:51:21.473Z,14.26
2023-04-26T10:53:21.763Z,14.25
2023-04-26T10:55:22.906Z,14.05
2023-04-26T10:57:24.031Z,13.87
2023-04-26T10:59:39.847Z,13.65
2023-04-26T11:01:29.580Z,13.67
2023-04-26T11:03:30.021Z,14.00
2023-04-26T11:05:30.369Z,14.33
2023-04-26T11:07:30.727Z,14.43
2023-04-26T11:09:31.013Z,14.29
2023-04-26T11:11:31.302Z,14.26
2023-04-26T11:13:31.626Z,14.32
2023-04-26T11:15:31.922Z,14.59
2023-04-26T11:17:32.218Z,15.04
2023-04-26T11:19:32.537Z,15.49
2023-04-26T11:21:32.803Z,15.95
2023-04-26T11:23:33.059Z,16.12
2023-04-26T11:25:33.383Z,16.21
2023-04-26T11:27:33.672Z,16.35
2023-04-26T11:29:33.929Z,16.50
2023-04-26T11:31:34.352Z,16.39
2023-04-26T11:33:34.637Z,15.86
2023-04-26T11:35:34.933Z,15.42
2023-04-26T11:37:35.251Z,15.06
2023-04-26T11:39:35.522Z,14.85
2023-04-26T11:41:35.878Z,15.17
2023-04-26T11:43:36.270Z,15.24
2023-04-26T11:45:36.615Z,15.58
2023-04-26T11:47:36.939Z,15.83
2023-04-26T11:49:37.232Z,15.67
2023-04-26T11:51:37.550Z,15.44
2023-04-26T11:53:38.240Z,15.33
2023-04-26T11:55:38.577Z,15.04
2023-04-26T11:57:38.917Z,14.85
2023-04-26T11:59:39.382Z,14.97
2023-04-26T12:01:39.706Z,15.07
2023-04-26T12:03:40.173Z,15.10
2023-04-26T12:05:40.553Z,15.42
2023-04-26T12:07:40.854Z,15.65
2023-04-26T12:09:41.233Z,15.91
2023-04-26T12:11:41.526Z,16.17
2023-04-26T12:13:41.813Z,16.41
2023-04-26T12:15:42.144Z,15.97
2023-04-26T12:17:42.536Z,15.73
2023-04-26T12:19:42.823Z,15.65
2023-04-26T12:21:43.169Z,15.54
2023-04-26T12:23:43.435Z,15.67
2023-04-26T12:25:43.759Z,15.95
2023-04-26T12:27:44.045Z,16.57
2023-04-26T12:29:44.335Z,17.05
2023-04-26T12:31:44.727Z,17.29
2023-04-26T12:33:45.112Z,17.60
2023-04-26T12:35:45.397Z,18.03
2023-04-26T12:37:45.714Z,18.25
2023-04-26T12:39:46.011Z,18.53
2023-04-26T12:41:46.327Z,18.68
2023-04-26T12:43:46.661Z,18.53
2023-04-26T12:45:46.984Z,18.26
2023-04-26T12:47:47.372Z,17.95
2023-04-26T12:49:47.661Z,18.26
2023-04-26T12:51:47.981Z,18.59
2023-04-26T12:53:48.271Z,18.65
2023-04-26T12:55:48.557Z,18.65
2023-04-26T12:57:48.911Z,19.11
2023-04-26T12:59:49.160Z,19.30
2023-04-26T13:01:49.488Z,18.68
2023-04-26T13:03:50.170Z,18.31
2023-04-26T13:05:50.594Z,18.37
2023-04-26T13:07:50.907Z,18.56
2023-04-26T13:09:51.253Z,18.53
2023-04-26T13:11:51.632Z,18.49
2023-04-26T13:13:51.882Z,18.25
2023-04-26T13:15:52.204Z,17.70
2023-04-26T13:17:52.615Z,16.64
2023-04-26T13:19:52.960Z,16.64
2023-04-26T13:21:53.286Z,16.26
2023-04-26T13:23:53.551Z,16.01
2023-04-26T13:25:53.843Z,16.21
2023-04-26T13:27:54.175Z,16.53
2023-04-26T13:29:54.470Z,17.15
2023-04-26T13:31:54.875Z,17.34
2023-04-26T13:33:55.156Z,17.60
2023-04-26T13:35:55.520Z,17.54
2023-04-26T13:37:55.759Z,17.95
2023-04-26T13:39:56.097Z,18.11
2023-04-26T13:41:56.393Z,18.03
2023-04-26T13:43:56.718Z,17.59
2023-04-26T13:45:56.984Z,17.41
2023-04-26T13:47:57.318Z,17.38
2023-04-26T13:49:57.635Z,17.26
2023-04-26T13:51:57.999Z,16.97
2023-04-26T13:53:58.271Z,17.11
2023-04-26T13:55:58.603Z,17.30
2023-04-26T13:57:58.945Z,17.23
2023-04-26T13:59:59.264Z,17.06
2023-04-26T14:01:59.755Z,16.91
2023-04-26T14:04:00.310Z,16.43
2023-04-26T14:06:00.724Z,16.78
2023-04-26T14:08:01.020Z,16.86
2023-04-26T14:10:01.303Z,17.02
2023-04-26T14:12:08.393Z,17.39
2023-04-26T14:14:06.803Z,17.87
2023-04-26T14:16:07.163Z,18.05
2023-04-26T14:18:07.545Z,17.74
2023-04-26T14:20:07.801Z,17.05
2023-04-26T14:22:08.116Z,16.76
2023-04-26T14:24:08.715Z,16.29
2023-04-26T14:26:08.991Z,16.17
2023-04-26T14:28:09.296Z,16.16
2023-04-26T14:30:09.649Z,15.88
2023-04-26T14:32:09.998Z,16.08
2023-04-26T14:34:10.386Z,15.91
2023-04-26T14:36:10.708Z,15.97
2023-04-26T14:38:11.016Z,16.42
2023-04-26T14:40:11.379Z,16.50
2023-04-26T14:42:11.613Z,16.57
2023-04-26T14:44:11.974Z,16.83
2023-04-26T14:46:12.254Z,16.87
2023-04-26T14:48:12.567Z,17.02
2023-04-26T14:50:12.830Z,17.46
2023-04-26T14:52:13.118Z,17.44
2023-04-26T14:54:13.445Z,17.59
2023-04-26T14:56:13.766Z,17.80
2023-04-26T14:58:14.045Z,17.67
2023-04-26T15:00:14.361Z,17.63
2023-04-26T15:02:14.834Z,17.72
2023-04-26T15:04:15.310Z,17.63
2023-04-26T15:06:15.924Z,17.26
2023-04-26T15:08:16.322Z,16.74
2023-04-26T15:10:16.712Z,16.74
2023-04-26T15:12:17.624Z,16.72
2023-04-26T15:14:17.915Z,16.61
2023-04-26T15:16:18.305Z,16.78
2023-04-26T15:18:18.660Z,16.74
2023-04-26T15:20:18.946Z,16.87
2023-04-26T15:22:19.306Z,16.90
2023-04-26T15:24:19.578Z,17.14
2023-04-26T15:26:19.981Z,17.04
2023-04-26T15:28:20.279Z,17.02
2023-04-26T15:30:20.562Z,16.90
2023-04-26T15:32:20.854Z,16.46
2023-04-26T15:34:21.123Z,16.13
2023-04-26T15:36:21.457Z,15.75
2023-04-26T15:38:21.753Z,15.47
2023-04-26T15:40:22.112Z,15.47
2023-04-26T15:42:22.408Z,15.59
2023-04-26T15:44:22.762Z,15.68
2023-04-26T15:46:23.105Z,15.55
2023-04-26T15:48:23.458Z,15.36
2023-04-26T15:50:23.712Z,15.29
2023-04-26T15:52:24.032Z,15.14
2023-04-26T15:54:24.312Z,15.42
2023-04-26T15:56:24.597Z,15.61
2023-04-26T15:58:24.908Z,15.75
2023-04-26T16:00:25.212Z,15.68
2023-04-26T16:02:25.572Z,15.65
2023-04-26T16:04:26.050Z,15.40
2023-04-26T16:06:26.620Z,15.65
2023-04-26T16:08:39.531Z,15.54
2023-04-26T16:10:32.147Z,15.15
2023-04-26T16:12:32.531Z,14.99
2023-04-26T16:14:32.897Z,14.96
2023-04-26T16:16:33.185Z,15.19
2023-04-26T16:18:33.443Z,15.44
2023-04-26T16:20:33.801Z,15.52
2023-04-26T16:22:34.071Z,15.21
2023-04-26T16:24:34.378Z,15.10
2023-04-26T16:26:34.634Z,14.97
2023-04-26T16:28:34.930Z,15.14
2023-04-26T16:30:35.249Z,15.65
2023-04-26T16:32:35.585Z,15.43
2023-04-26T16:34:35.928Z,15.35
2023-04-26T16:36:36.244Z,15.25
2023-04-26T16:38:36.533Z,14.94
2023-04-26T16:40:36.841Z,14.73
2023-04-26T16:42:37.157Z,14.68
2023-04-26T16:44:37.446Z,14.54
2023-04-26T16:46:37.788Z,14.79
2023-04-26T16:48:38.139Z,15.55
2023-04-26T16:50:38.410Z,16.32
2023-04-26T16:52:38.737Z,16.86
2023-04-26T16:54:39.087Z,15.67
2023-04-26T16:56:39.353Z,15.02
2023-04-26T16:58:39.671Z,14.81
2023-04-26T17:00:40.102Z,14.47
2023-04-26T17:02:40.709Z,14.30
2023-04-26T17:04:41.392Z,14.28
2023-04-26T17:06:41.853Z,14.36
2023-04-26T17:08:42.113Z,14.32
2023-04-26T17:10:42.429Z,14.32
2023-04-26T17:12:42.700Z,14.33
2023-04-26T17:14:42.994Z,14.26
2023-04-26T17:16:43.376Z,14.25
2023-04-26T17:18:43.719Z,14.28
2023-04-26T17:20:44.025Z,14.25
2023-04-26T17:22:44.302Z,14.14
2023-04-26T17:24:44.601Z,14.04
2023-04-26T17:26:44.893Z,13.97
2023-04-26T17:28:45.247Z,13.86
2023-04-26T17:30:45.573Z,13.78
2023-04-26T17:32:45.937Z,13.79
2023-04-26T17:34:46.239Z,13.74
2023-04-26T17:36:46.609Z,13.68
2023-04-26T17:38:46.913Z,13.63
2023-04-26T17:40:47.383Z,13.68
2023-04-26T17:42:52.518Z,14.03
2023-04-26T17:44:52.861Z,14.11
2023-04-26T17:46:53.182Z,13.81
2023-04-26T17:48:53.442Z,13.63
2023-04-26T17:50:53.794Z,13.50
2023-04-26T17:52:54.135Z,13.44
2023-04-26T17:54:54.434Z,13.46
2023-04-26T17:56:54.762Z,13.37
2023-04-26T17:58:55.053Z,13.23
2023-04-26T18:00:55.460Z,13.15
2023-04-26T18:02:56.032Z,13.03
2023-04-26T18:04:56.698Z,12.94
2023-04-26T18:06:57.046Z,12.87
2023-04-26T18:08:57.370Z,12.80
2023-04-26T18:10:57.682Z,12.73
2023-04-26T18:12:57.966Z,12.65
2023-04-26T18:14:58.502Z,12.55
2023-04-26T18:16:59.678Z,12.55
2023-04-26T18:19:03.687Z,12.45
2023-04-26T18:21:04.134Z,12.40
2023-04-26T18:23:04.407Z,12.32
2023-04-26T18:25:04.850Z,12.27
2023-04-26T18:27:09.922Z,12.25
2023-04-26T18:29:10.215Z,12.12
2023-04-26T18:31:10.575Z,12.03
2023-04-26T18:33:10.900Z,12.00
2023-04-26T18:35:11.237Z,11.99
2023-04-26T18:37:11.540Z,11.90
2023-04-26T18:39:11.876Z,11.87
2023-04-26T18:41:12.167Z,11.83
2023-04-26T18:43:12.444Z,11.80
2023-04-26T18:45:12.746Z,11.77
2023-04-26T18:47:13.099Z,11.68
2023-04-26T18:49:13.415Z,11.65
2023-04-26T18:51:14.110Z,11.63
2023-04-26T18:53:14.413Z,11.51
2023-04-26T18:55:14.684Z,11.50
2023-04-26T18:57:15.044Z,11.44
2023-04-26T18:59:15.316Z,11.43
2023-04-26T19:01:15.680Z,11.32
2023-04-26T19:03:16.131Z,11.29
2023-04-26T19:05:21.167Z,11.22
2023-04-26T19:07:21.488Z,11.12
2023-04-26T19:09:21.863Z,11.12
2023-04-26T19:11:22.128Z,11.04
2023-04-26T19:13:22.629Z,11.04
2023-04-26T19:15:23.004Z,10.97
2023-04-26T19:17:23.271Z,11.00
2023-04-26T19:19:23.642Z,10.96
2023-04-26T19:21:23.963Z,10.97
2023-04-26T19:23:24.292Z,10.96
2023-04-26T19:25:24.560Z,10.90
2023-04-26T19:27:24.896Z,10.90
2023-04-26T19:29:25.236Z,10.86
2023-04-26T19:31:25.594Z,10.79
2023-04-26T19:33:25.864Z,10.76
2023-04-26T19:35:26.264Z,10.74
2023-04-26T19:37:26.521Z,10.72
2023-04-26T19:39:26.858Z,10.63
2023-04-26T19:41:27.167Z,10.60
2023-04-26T19:43:27.460Z,10.54
2023-04-26T19:45:27.796Z,10.48
2023-04-26T19:47:28.108Z,10.44
2023-04-26T19:49:29.249Z,10.37
2023-04-26T19:51:29.612Z,10.33
2023-04-26T19:53:29.932Z,10.23
2023-04-26T19:55:30.392Z,10.16
2023-04-26T19:57:30.741Z,10.09
2023-04-26T19:59:31.185Z,10.02
2023-04-26T20:01:31.600Z,9.99
2023-04-26T20:03:36.872Z,9.86
2023-04-26T20:05:37.363Z,9.74
2023-04-26T20:07:37.679Z,9.58
2023-04-26T20:09:38.044Z,9.47
2023-04-26T20:11:38.407Z,9.39
2023-04-26T20:13:38.685Z,9.28
2023-04-26T20:15:39.163Z,9.21
2023-04-26T20:17:39.575Z,9.04
2023-04-26T20:19:39.892Z,8.94
2023-04-26T20:21:40.290Z,8.82
2023-04-26T20:23:40.684Z,8.79
2023-04-26T20:25:41.028Z,8.76
2023-04-26T20:27:41.352Z,8.67
2023-04-26T20:29:41.643Z,8.58
2023-04-26T20:31:42.053Z,8.53
2023-04-26T20:33:42.325Z,8.45
2023-04-26T20:35:42.662Z,8.38
2023-04-26T20:37:42.977Z,8.36
2023-04-26T20:39:43.327Z,8.28
2023-04-26T20:41:43.624Z,8.19
2023-04-26T20:43:43.956Z,8.13
2023-04-26T20:45:44.271Z,8.16
2023-04-26T20:47:44.762Z,8.08
2023-04-26T20:49:44.999Z,8.01
2023-04-26T20:51:45.305Z,8.00
2023-04-26T20:53:45.649Z,8.01
2023-04-26T20:55:45.925Z,8.12
2023-04-26T20:57:46.286Z,8.10
2023-04-26T20:59:46.614Z,8.08
2023-04-26T21:01:46.982Z,8.05
2023-04-26T21:03:47.427Z,7.98
2023-04-26T21:05:47.902Z,7.95
2023-04-26T21:07:48.146Z,7.90
2023-04-26T21:09:48.522Z,7.93
2023-04-26T21:11:48.908Z,7.93
2023-04-26T21:13:49.181Z,7.90
2023-04-26T21:15:49.508Z,7.79
2023-04-26T21:17:49.955Z,7.75
2023-04-26T21:19:50.288Z,7.79
2023-04-26T21:21:50.637Z,7.73
2023-04-26T21:23:50.896Z,7.67
2023-04-26T21:25:51.222Z,7.63
2023-04-26T21:27:51.513Z,7.53
2023-04-26T21:29:51.830Z,7.42
2023-04-26T21:31:52.190Z,7.33
2023-04-26T21:33:52.482Z,7.35
2023-04-26T21:35:52.829Z,7.35
2023-04-26T21:37:53.121Z,7.24
2023-04-26T21:39:53.407Z,7.17
2023-04-26T21:41:53.714Z,7.13
2023-04-26T21:43:54.002Z,7.15
2023-04-26T21:45:54.319Z,7.24
2023-04-26T21:47:54.622Z,7.20
2023-04-26T21:49:54.989Z,7.21
2023-04-26T21:51:55.271Z,7.18
2023-04-26T21:53:55.612Z,7.10
2023-04-26T21:55:55.857Z,7.02
2023-04-26T21:57:56.184Z,7.06
2023-04-26T21:59:56.479Z,7.14
2023-04-26T22:01:56.816Z,7.18
2023-04-26T22:03:57.279Z,7.07
2023-04-26T22:05:57.679Z,7.00
2023-04-26T22:07:57.996Z,7.00
2023-04-26T22:09:58.299Z,6.95
2023-04-26T22:11:58.593Z,6.88
2023-04-26T22:14:03.793Z,6.85
2023-04-26T22:16:04.100Z,6.81
2023-04-26T22:18:04.466Z,6.81
2023-04-26T22:20:04.737Z,6.70
2023-04-26T22:22:05.073Z,6.62
2023-04-26T22:24:05.387Z,6.62
2023-04-26T22:26:05.719Z,6.66
2023-04-26T22:28:05.980Z,6.66
2023-04-26T22:30:20.319Z,6.56
2023-04-26T22:32:11.547Z,6.51
2023-04-26T22:34:11.853Z,6.44
2023-04-26T22:36:12.127Z,6.39
2023-04-26T22:38:12.505Z,6.35
2023-04-26T22:40:12.812Z,6.30
2023-04-26T22:42:13.145Z,6.28
2023-04-26T22:44:13.415Z,6.30
2023-04-26T22:46:13.756Z,6.33
2023-04-26T22:48:14.032Z,6.31
2023-04-26T22:50:14.410Z,6.28
2023-04-26T22:52:27.939Z,6.27
2023-04-26T22:54:19.934Z,6.22
2023-04-26T22:56:20.222Z,6.12
2023-04-26T22:58:20.532Z,6.01
2023-04-26T23:00:20.818Z,5.93
2023-04-26T23:02:21.265Z,5.86
2023-04-26T23:04:21.576Z,5.83
2023-04-26T23:06:21.948Z,5.79
2023-04-26T23:08:22.234Z,5.71
2023-04-26T23:10:22.546Z,5.71
2023-04-26T23:12:22.855Z,5.66
2023-04-26T23:14:23.135Z,5.61
2023-04-26T23:16:23.483Z,5.66
2023-04-26T23:18:23.758Z,5.68
2023-04-26T23:20:24.106Z,5.50
2023-04-26T23:22:24.386Z,5.41
2023-04-26T23:24:24.649Z,5.30
2023-04-26T23:26:24.962Z,5.30
2023-04-26T23:28:25.258Z,5.26
2023-04-26T23:30:25.577Z,5.20
2023-04-26T23:32:25.879Z,5.20
2023-04-26T23:34:26.182Z,5.18
2023-04-26T23:36:26.503Z,5.17
2023-04-26T23:38:26.767Z,5.12
2023-04-26T23:40:27.163Z,5.08
2023-04-26T23:42:27.492Z,5.10
2023-04-26T23:44:27.784Z,5.05
2023-04-26T23:46:28.117Z,5.05
2023-04-26T23:48:28.404Z,5.07
2023-04-26T23:50:28.750Z,5.10
2023-04-26T23:52:29.081Z,5.21
2023-04-26T23:54:29.342Z,5.25
2023-04-26T23:56:29.601Z,5.26
2023-04-26T23:58:30.025Z,5.20
